sensor_id;sensor_type;location;lat;lon;timestamp;temperature;humidity
27848;DHT22;15212;48.830;8.730;2022-08-01T00:00:13;21.30;93.60
27848;DHT22;15212;48.830;8.730;2022-08-01T00:02:41;21.30;93.60
27848;DHT22;15212;48.830;8.730;2022-08-01T00:05:10;21.30;93.70
27848;DHT22;15212;48.830;8.730;2022-08-01T00:07:39;21.30;93.80
27848;DHT22;15212;48.830;8.730;2022-08-01T00:10:10;21.30;93.90
27848;DHT22;15212;48.830;8.730;2022-08-01T00:12:40;21.30;94.00
27848;DHT22;15212;48.830;8.730;2022-08-01T00:15:11;21.30;94.00
27848;DHT22;15212;48.830;8.730;2022-08-01T00:17:41;21.30;94.30
27848;DHT22;15212;48.830;8.730;2022-08-01T00:20:13;21.20;94.50
27848;DHT22;15212;48.830;8.730;2022-08-01T00:22:41;21.20;94.70
27848;DHT22;15212;48.830;8.730;2022-08-01T00:25:10;21.10;94.80
27848;DHT22;15212;48.830;8.730;2022-08-01T00:27:38;21.10;95.00
27848;DHT22;15212;48.830;8.730;2022-08-01T00:30:07;21.10;95.30
27848;DHT22;15212;48.830;8.730;2022-08-01T00:32:35;21.00;95.50
27848;DHT22;15212;48.830;8.730;2022-08-01T00:35:04;21.00;95.50
27848;DHT22;15212;48.830;8.730;2022-08-01T00:37:33;21.00;95.90
27848;DHT22;15212;48.830;8.730;2022-08-01T00:40:01;20.90;96.00
27848;DHT22;15212;48.830;8.730;2022-08-01T00:42:30;21.00;96.10
27848;DHT22;15212;48.830;8.730;2022-08-01T00:44:58;20.90;96.10
27848;DHT22;15212;48.830;8.730;2022-08-01T00:47:27;20.90;96.30
27848;DHT22;15212;48.830;8.730;2022-08-01T00:49:55;20.90;96.50
27848;DHT22;15212;48.830;8.730;2022-08-01T00:52:23;20.90;96.80
27848;DHT22;15212;48.830;8.730;2022-08-01T00:54:52;20.80;97.00
27848;DHT22;15212;48.830;8.730;2022-08-01T00:57:21;20.80;97.30
27848;DHT22;15212;48.830;8.730;2022-08-01T00:59:50;20.80;97.40
27848;DHT22;15212;48.830;8.730;2022-08-01T01:02:19;20.70;97.60
27848;DHT22;15212;48.830;8.730;2022-08-01T01:04:48;20.80;97.80
27848;DHT22;15212;48.830;8.730;2022-08-01T01:07:35;20.70;98.00
27848;DHT22;15212;48.830;8.730;2022-08-01T01:10:12;20.60;98.30
27848;DHT22;15212;48.830;8.730;2022-08-01T01:13:04;20.60;98.70
27848;DHT22;15212;48.830;8.730;2022-08-01T01:15:47;20.60;98.80
27848;DHT22;15212;48.830;8.730;2022-08-01T01:18:48;20.60;99.10
27848;DHT22;15212;48.830;8.730;2022-08-01T01:29:51;20.50;99.90
27848;DHT22;15212;48.830;8.730;2022-08-01T01:32:38;20.40;99.90
27848;DHT22;15212;48.830;8.730;2022-08-01T01:35:11;20.40;99.90
27848;DHT22;15212;48.830;8.730;2022-08-01T01:37:40;20.40;99.90
27848;DHT22;15212;48.830;8.730;2022-08-01T01:40:11;20.40;99.90
27848;DHT22;15212;48.830;8.730;2022-08-01T01:42:42;20.30;99.90
27848;DHT22;15212;48.830;8.730;2022-08-01T01:45:12;20.30;99.90
27848;DHT22;15212;48.830;8.730;2022-08-01T01:47:43;20.40;99.90
27848;DHT22;15212;48.830;8.730;2022-08-01T01:50:12;20.30;99.90
27848;DHT22;15212;48.830;8.730;2022-08-01T01:52:42;20.30;99.90
27848;DHT22;15212;48.830;8.730;2022-08-01T01:55:12;20.30;99.90
27848;DHT22;15212;48.830;8.730;2022-08-01T01:57:42;20.20;99.90
27848;DHT22;15212;48.830;8.730;2022-08-01T02:00:12;20.20;99.90
27848;DHT22;15212;48.830;8.730;2022-08-01T02:02:42;20.20;99.90
27848;DHT22;15212;48.830;8.730;2022-08-01T02:05:13;20.10;99.90
27848;DHT22;15212;48.830;8.730;2022-08-01T02:07:42;20.10;99.90
27848;DHT22;15212;48.830;8.730;2022-08-01T02:10:12;20.00;99.90
27848;DHT22;15212;48.830;8.730;2022-08-01T02:12:43;20.00;99.90
27848;DHT22;15212;48.830;8.730;2022-08-01T02:15:13;20.00;99.90
27848;DHT22;15212;48.830;8.730;2022-08-01T02:17:44;20.00;99.90
27848;DHT22;15212;48.830;8.730;2022-08-01T02:20:15;19.90;99.90
27848;DHT22;15212;48.830;8.730;2022-08-01T02:22:56;19.90;99.90
27848;DHT22;15212;48.830;8.730;2022-08-01T02:25:46;19.90;99.90
27848;DHT22;15212;48.830;8.730;2022-08-01T02:28:21;19.80;99.90
27848;DHT22;15212;48.830;8.730;2022-08-01T02:30:54;19.80;99.90
27848;DHT22;15212;48.830;8.730;2022-08-01T02:33:33;19.80;99.90
27848;DHT22;15212;48.830;8.730;2022-08-01T02:35:59;19.70;99.90
27848;DHT22;15212;48.830;8.730;2022-08-01T02:38:31;19.70;99.90
27848;DHT22;15212;48.830;8.730;2022-08-01T02:41:05;19.70;99.90
27848;DHT22;15212;48.830;8.730;2022-08-01T02:43:40;19.60;99.90
27848;DHT22;15212;48.830;8.730;2022-08-01T02:46:11;19.60;99.90
27848;DHT22;15212;48.830;8.730;2022-08-01T02:48:43;19.60;99.90
27848;DHT22;15212;48.830;8.730;2022-08-01T02:51:14;19.60;99.90
27848;DHT22;15212;48.830;8.730;2022-08-01T02:53:44;19.60;99.90
27848;DHT22;15212;48.830;8.730;2022-08-01T02:56:14;19.60;99.90
27848;DHT22;15212;48.830;8.730;2022-08-01T02:58:44;19.50;99.90
27848;DHT22;15212;48.830;8.730;2022-08-01T03:01:15;19.50;99.90
27848;DHT22;15212;48.830;8.730;2022-08-01T03:03:44;19.50;99.90
27848;DHT22;15212;48.830;8.730;2022-08-01T03:06:14;19.50;99.90
27848;DHT22;15212;48.830;8.730;2022-08-01T03:08:43;19.40;99.90
27848;DHT22;15212;48.830;8.730;2022-08-01T03:11:12;19.40;99.90
27848;DHT22;15212;48.830;8.730;2022-08-01T03:13:42;19.40;99.90
27848;DHT22;15212;48.830;8.730;2022-08-01T03:16:12;19.40;99.90
27848;DHT22;15212;48.830;8.730;2022-08-01T03:18:41;19.40;99.90
27848;DHT22;15212;48.830;8.730;2022-08-01T03:21:13;19.30;99.90
27848;DHT22;15212;48.830;8.730;2022-08-01T03:23:43;19.30;99.90
27848;DHT22;15212;48.830;8.730;2022-08-01T03:26:13;19.30;99.90
27848;DHT22;15212;48.830;8.730;2022-08-01T03:28:43;19.30;99.90
27848;DHT22;15212;48.830;8.730;2022-08-01T03:31:14;19.20;99.90
27848;DHT22;15212;48.830;8.730;2022-08-01T03:33:43;19.20;99.90
27848;DHT22;15212;48.830;8.730;2022-08-01T03:36:12;19.20;99.90
27848;DHT22;15212;48.830;8.730;2022-08-01T03:38:42;19.20;99.90
27848;DHT22;15212;48.830;8.730;2022-08-01T03:41:18;19.20;99.90
27848;DHT22;15212;48.830;8.730;2022-08-01T03:43:52;19.20;99.90
27848;DHT22;15212;48.830;8.730;2022-08-01T03:46:22;19.10;99.90
27848;DHT22;15212;48.830;8.730;2022-08-01T03:49:04;19.10;99.90
27848;DHT22;15212;48.830;8.730;2022-08-01T03:51:36;19.10;99.90
27848;DHT22;15212;48.830;8.730;2022-08-01T03:54:08;19.10;99.90
27848;DHT22;15212;48.830;8.730;2022-08-01T03:56:37;19.10;99.90
27848;DHT22;15212;48.830;8.730;2022-08-01T03:59:06;19.00;99.90
27848;DHT22;15212;48.830;8.730;2022-08-01T04:01:36;19.00;99.90
27848;DHT22;15212;48.830;8.730;2022-08-01T04:04:05;19.00;99.90
27848;DHT22;15212;48.830;8.730;2022-08-01T04:06:39;19.00;99.90
27848;DHT22;15212;48.830;8.730;2022-08-01T04:09:08;19.00;99.90
27848;DHT22;15212;48.830;8.730;2022-08-01T04:11:37;19.00;99.90
27848;DHT22;15212;48.830;8.730;2022-08-01T04:14:05;18.90;99.90
27848;DHT22;15212;48.830;8.730;2022-08-01T04:16:34;18.90;99.90
27848;DHT22;15212;48.830;8.730;2022-08-01T04:19:02;18.90;99.90
27848;DHT22;15212;48.830;8.730;2022-08-01T04:21:32;18.90;99.90
27848;DHT22;15212;48.830;8.730;2022-08-01T04:24:06;18.90;99.90
27848;DHT22;15212;48.830;8.730;2022-08-01T04:26:36;18.90;99.90
27848;DHT22;15212;48.830;8.730;2022-08-01T04:29:07;18.90;99.90
27848;DHT22;15212;48.830;8.730;2022-08-01T04:31:37;19.00;99.90
27848;DHT22;15212;48.830;8.730;2022-08-01T04:34:07;18.90;99.90
27848;DHT22;15212;48.830;8.730;2022-08-01T04:36:37;18.90;99.90
27848;DHT22;15212;48.830;8.730;2022-08-01T04:39:09;19.00;99.90
27848;DHT22;15212;48.830;8.730;2022-08-01T04:41:38;19.00;99.90
27848;DHT22;15212;48.830;8.730;2022-08-01T04:44:07;19.00;99.90
27848;DHT22;15212;48.830;8.730;2022-08-01T04:46:36;19.00;99.90
27848;DHT22;15212;48.830;8.730;2022-08-01T04:49:06;19.10;99.90
27848;DHT22;15212;48.830;8.730;2022-08-01T04:51:35;19.10;99.90
27848;DHT22;15212;48.830;8.730;2022-08-01T04:54:04;19.20;99.90
27848;DHT22;15212;48.830;8.730;2022-08-01T04:56:33;19.20;99.90
27848;DHT22;15212;48.830;8.730;2022-08-01T04:59:02;19.30;99.90
27848;DHT22;15212;48.830;8.730;2022-08-01T05:01:49;19.30;99.90
27848;DHT22;15212;48.830;8.730;2022-08-01T05:04:17;19.30;99.90
27848;DHT22;15212;48.830;8.730;2022-08-01T05:06:46;19.40;99.90
27848;DHT22;15212;48.830;8.730;2022-08-01T05:09:14;19.40;99.90
27848;DHT22;15212;48.830;8.730;2022-08-01T05:11:42;19.50;99.90
27848;DHT22;15212;48.830;8.730;2022-08-01T05:14:11;19.50;99.90
27848;DHT22;15212;48.830;8.730;2022-08-01T05:16:39;19.60;99.90
27848;DHT22;15212;48.830;8.730;2022-08-01T05:19:08;19.70;99.90
27848;DHT22;15212;48.830;8.730;2022-08-01T05:21:37;19.90;99.90
27848;DHT22;15212;48.830;8.730;2022-08-01T05:24:06;20.10;99.90
27848;DHT22;15212;48.830;8.730;2022-08-01T05:26:34;20.20;99.90
27848;DHT22;15212;48.830;8.730;2022-08-01T05:29:03;20.30;99.90
27848;DHT22;15212;48.830;8.730;2022-08-01T05:31:32;20.40;99.90
27848;DHT22;15212;48.830;8.730;2022-08-01T05:34:01;20.60;99.90
27848;DHT22;15212;48.830;8.730;2022-08-01T05:36:30;20.70;99.90
27848;DHT22;15212;48.830;8.730;2022-08-01T05:38:59;20.80;99.90
27848;DHT22;15212;48.830;8.730;2022-08-01T05:41:28;21.00;99.90
27848;DHT22;15212;48.830;8.730;2022-08-01T05:43:56;21.10;99.90
27848;DHT22;15212;48.830;8.730;2022-08-01T05:46:24;21.20;99.90
27848;DHT22;15212;48.830;8.730;2022-08-01T05:48:53;21.30;99.90
27848;DHT22;15212;48.830;8.730;2022-08-01T05:51:22;21.30;99.90
27848;DHT22;15212;48.830;8.730;2022-08-01T05:53:51;21.40;99.90
27848;DHT22;15212;48.830;8.730;2022-08-01T05:56:20;21.50;99.90
27848;DHT22;15212;48.830;8.730;2022-08-01T05:58:50;21.60;99.90
27848;DHT22;15212;48.830;8.730;2022-08-01T06:01:19;21.80;99.90
27848;DHT22;15212;48.830;8.730;2022-08-01T06:03:47;21.90;99.90
27848;DHT22;15212;48.830;8.730;2022-08-01T06:06:15;22.10;99.90
27848;DHT22;15212;48.830;8.730;2022-08-01T06:08:44;22.60;99.90
27848;DHT22;15212;48.830;8.730;2022-08-01T06:11:12;23.20;99.90
27848;DHT22;15212;48.830;8.730;2022-08-01T06:13:41;23.70;99.90
27848;DHT22;15212;48.830;8.730;2022-08-01T06:16:09;24.40;99.90
27848;DHT22;15212;48.830;8.730;2022-08-01T06:18:37;25.00;99.90
27848;DHT22;15212;48.830;8.730;2022-08-01T06:21:06;25.90;99.90
27848;DHT22;15212;48.830;8.730;2022-08-01T06:23:34;26.30;99.90
27848;DHT22;15212;48.830;8.730;2022-08-01T06:26:03;26.60;99.90
27848;DHT22;15212;48.830;8.730;2022-08-01T06:28:32;27.40;99.90
27848;DHT22;15212;48.830;8.730;2022-08-01T06:31:00;28.10;99.90
27848;DHT22;15212;48.830;8.730;2022-08-01T06:33:28;28.60;99.90
27848;DHT22;15212;48.830;8.730;2022-08-01T06:35:57;28.80;99.90
27848;DHT22;15212;48.830;8.730;2022-08-01T06:38:25;29.40;99.00
27848;DHT22;15212;48.830;8.730;2022-08-01T06:40:53;29.80;97.90
27848;DHT22;15212;48.830;8.730;2022-08-01T06:43:22;30.00;97.00
27848;DHT22;15212;48.830;8.730;2022-08-01T06:45:50;30.30;96.80
27848;DHT22;15212;48.830;8.730;2022-08-01T06:48:19;30.30;95.90
27848;DHT22;15212;48.830;8.730;2022-08-01T06:50:47;30.30;95.70
27848;DHT22;15212;48.830;8.730;2022-08-01T06:53:15;30.30;95.20
27848;DHT22;15212;48.830;8.730;2022-08-01T06:55:44;30.60;94.80
27848;DHT22;15212;48.830;8.730;2022-08-01T06:58:12;30.60;94.60
27848;DHT22;15212;48.830;8.730;2022-08-01T07:00:40;30.80;93.80
27848;DHT22;15212;48.830;8.730;2022-08-01T07:03:09;31.00;93.50
27848;DHT22;15212;48.830;8.730;2022-08-01T07:05:37;30.70;93.90
27848;DHT22;15212;48.830;8.730;2022-08-01T07:08:06;30.30;93.60
27848;DHT22;15212;48.830;8.730;2022-08-01T07:10:34;29.20;94.50
27848;DHT22;15212;48.830;8.730;2022-08-01T07:13:02;28.40;95.60
27848;DHT22;15212;48.830;8.730;2022-08-01T07:15:31;28.20;96.10
27848;DHT22;15212;48.830;8.730;2022-08-01T07:17:59;28.10;96.30
27848;DHT22;15212;48.830;8.730;2022-08-01T07:20:29;28.30;96.10
27848;DHT22;15212;48.830;8.730;2022-08-01T07:22:58;28.00;96.30
27848;DHT22;15212;48.830;8.730;2022-08-01T07:25:26;28.10;96.30
27848;DHT22;15212;48.830;8.730;2022-08-01T07:27:54;28.60;95.90
27848;DHT22;15212;48.830;8.730;2022-08-01T07:30:23;28.90;95.30
27848;DHT22;15212;48.830;8.730;2022-08-01T07:32:52;28.90;95.30
27848;DHT22;15212;48.830;8.730;2022-08-01T07:35:20;28.80;95.40
27848;DHT22;15212;48.830;8.730;2022-08-01T07:37:48;28.50;95.60
27848;DHT22;15212;48.830;8.730;2022-08-01T07:40:17;27.60;96.40
27848;DHT22;15212;48.830;8.730;2022-08-01T07:42:46;26.70;97.60
27848;DHT22;15212;48.830;8.730;2022-08-01T07:45:15;26.40;98.30
27848;DHT22;15212;48.830;8.730;2022-08-01T07:47:44;26.20;98.90
27848;DHT22;15212;48.830;8.730;2022-08-01T07:50:13;25.80;99.30
27848;DHT22;15212;48.830;8.730;2022-08-01T07:52:42;25.70;99.90
27848;DHT22;15212;48.830;8.730;2022-08-01T07:55:11;25.90;99.70
27848;DHT22;15212;48.830;8.730;2022-08-01T07:57:40;26.10;99.50
27848;DHT22;15212;48.830;8.730;2022-08-01T08:00:08;26.10;99.70
27848;DHT22;15212;48.830;8.730;2022-08-01T08:02:37;25.90;99.90
27848;DHT22;15212;48.830;8.730;2022-08-01T08:05:06;26.00;99.90
27848;DHT22;15212;48.830;8.730;2022-08-01T08:07:34;25.90;99.90
27848;DHT22;15212;48.830;8.730;2022-08-01T08:10:04;25.80;99.90
27848;DHT22;15212;48.830;8.730;2022-08-01T08:12:33;25.60;99.90
27848;DHT22;15212;48.830;8.730;2022-08-01T08:15:01;25.40;99.90
27848;DHT22;15212;48.830;8.730;2022-08-01T08:17:31;25.40;99.90
27848;DHT22;15212;48.830;8.730;2022-08-01T08:20:00;25.40;99.90
27848;DHT22;15212;48.830;8.730;2022-08-01T08:22:29;25.40;99.90
27848;DHT22;15212;48.830;8.730;2022-08-01T08:24:57;25.30;99.90
27848;DHT22;15212;48.830;8.730;2022-08-01T08:27:26;25.10;99.90
27848;DHT22;15212;48.830;8.730;2022-08-01T08:29:54;25.10;99.90
27848;DHT22;15212;48.830;8.730;2022-08-01T08:32:23;25.30;99.90
27848;DHT22;15212;48.830;8.730;2022-08-01T08:34:51;25.50;99.90
27848;DHT22;15212;48.830;8.730;2022-08-01T08:37:20;25.60;99.90
27848;DHT22;15212;48.830;8.730;2022-08-01T08:39:49;25.50;99.90
27848;DHT22;15212;48.830;8.730;2022-08-01T08:42:18;25.50;99.90
27848;DHT22;15212;48.830;8.730;2022-08-01T08:44:47;25.60;99.90
27848;DHT22;15212;48.830;8.730;2022-08-01T08:47:15;25.50;99.90
27848;DHT22;15212;48.830;8.730;2022-08-01T08:49:46;25.60;99.90
27848;DHT22;15212;48.830;8.730;2022-08-01T08:52:15;25.90;99.90
27848;DHT22;15212;48.830;8.730;2022-08-01T08:54:48;25.80;99.90
27848;DHT22;15212;48.830;8.730;2022-08-01T08:57:19;25.40;99.90
27848;DHT22;15212;48.830;8.730;2022-08-01T08:59:49;25.00;99.90
27848;DHT22;15212;48.830;8.730;2022-08-01T09:02:18;25.20;99.90
27848;DHT22;15212;48.830;8.730;2022-08-01T09:04:49;25.40;99.90
27848;DHT22;15212;48.830;8.730;2022-08-01T09:07:17;25.70;99.90
27848;DHT22;15212;48.830;8.730;2022-08-01T09:09:46;25.90;99.90
27848;DHT22;15212;48.830;8.730;2022-08-01T09:12:19;26.00;99.90
27848;DHT22;15212;48.830;8.730;2022-08-01T09:14:48;26.00;99.90
27848;DHT22;15212;48.830;8.730;2022-08-01T09:17:18;25.80;99.90
27848;DHT22;15212;48.830;8.730;2022-08-01T09:19:49;25.70;99.90
27848;DHT22;15212;48.830;8.730;2022-08-01T09:22:21;25.60;99.90
27848;DHT22;15212;48.830;8.730;2022-08-01T09:25:05;25.30;99.90
27848;DHT22;15212;48.830;8.730;2022-08-01T09:27:37;25.00;99.90
27848;DHT22;15212;48.830;8.730;2022-08-01T09:30:17;24.90;99.90
27848;DHT22;15212;48.830;8.730;2022-08-01T09:32:59;25.00;99.90
27848;DHT22;15212;48.830;8.730;2022-08-01T09:35:32;25.00;99.90
27848;DHT22;15212;48.830;8.730;2022-08-01T09:38:14;25.10;99.90
27848;DHT22;15212;48.830;8.730;2022-08-01T09:40:51;25.00;99.90
27848;DHT22;15212;48.830;8.730;2022-08-01T09:43:24;24.90;99.90
27848;DHT22;15212;48.830;8.730;2022-08-01T09:45:54;25.10;99.90
27848;DHT22;15212;48.830;8.730;2022-08-01T09:48:23;25.50;99.90
27848;DHT22;15212;48.830;8.730;2022-08-01T09:50:53;25.90;99.90
27848;DHT22;15212;48.830;8.730;2022-08-01T09:53:21;26.10;99.90
27848;DHT22;15212;48.830;8.730;2022-08-01T09:55:50;26.30;99.90
27848;DHT22;15212;48.830;8.730;2022-08-01T09:58:20;26.40;99.90
27848;DHT22;15212;48.830;8.730;2022-08-01T10:00:59;26.50;99.90
27848;DHT22;15212;48.830;8.730;2022-08-01T10:03:30;26.60;99.90
27848;DHT22;15212;48.830;8.730;2022-08-01T10:05:59;26.30;99.90
27848;DHT22;15212;48.830;8.730;2022-08-01T10:08:28;25.90;99.90
27848;DHT22;15212;48.830;8.730;2022-08-01T10:11:10;25.90;99.90
27848;DHT22;15212;48.830;8.730;2022-08-01T10:13:39;26.10;99.90
27848;DHT22;15212;48.830;8.730;2022-08-01T10:16:09;26.20;99.90
27848;DHT22;15212;48.830;8.730;2022-08-01T10:18:40;26.10;99.90
27848;DHT22;15212;48.830;8.730;2022-08-01T10:21:10;26.00;99.90
27848;DHT22;15212;48.830;8.730;2022-08-01T10:23:39;25.90;99.90
27848;DHT22;15212;48.830;8.730;2022-08-01T10:26:10;25.80;99.90
27848;DHT22;15212;48.830;8.730;2022-08-01T10:28:41;25.70;99.90
27848;DHT22;15212;48.830;8.730;2022-08-01T10:31:11;25.70;99.90
27848;DHT22;15212;48.830;8.730;2022-08-01T10:33:40;25.90;99.90
27848;DHT22;15212;48.830;8.730;2022-08-01T10:36:09;26.10;99.90
27848;DHT22;15212;48.830;8.730;2022-08-01T10:38:37;26.10;99.70
27848;DHT22;15212;48.830;8.730;2022-08-01T10:41:08;25.60;99.90
27848;DHT22;15212;48.830;8.730;2022-08-01T10:43:37;25.40;99.90
27848;DHT22;15212;48.830;8.730;2022-08-01T10:46:06;25.40;99.90
27848;DHT22;15212;48.830;8.730;2022-08-01T10:48:47;25.60;99.90
27848;DHT22;15212;48.830;8.730;2022-08-01T10:51:16;25.70;99.90
27848;DHT22;15212;48.830;8.730;2022-08-01T10:53:53;25.80;99.90
27848;DHT22;15212;48.830;8.730;2022-08-01T10:56:23;25.70;99.90
27848;DHT22;15212;48.830;8.730;2022-08-01T10:59:36;25.40;99.90
27848;DHT22;15212;48.830;8.730;2022-08-01T11:01:31;25.20;99.90
27848;DHT22;15212;48.830;8.730;2022-08-01T11:06:42;25.30;99.90
27848;DHT22;15212;48.830;8.730;2022-08-01T11:09:27;25.40;99.90
27848;DHT22;15212;48.830;8.730;2022-08-01T11:12:03;25.70;99.90
27848;DHT22;15212;48.830;8.730;2022-08-01T11:17:45;26.00;99.80
27848;DHT22;15212;48.830;8.730;2022-08-01T11:20:19;26.10;99.80
27848;DHT22;15212;48.830;8.730;2022-08-01T11:30:56;25.80;99.90
27848;DHT22;15212;48.830;8.730;2022-08-01T11:38:48;25.20;99.90
27848;DHT22;15212;48.830;8.730;2022-08-01T11:41:26;25.20;99.90
27848;DHT22;15212;48.830;8.730;2022-08-01T11:44:11;25.40;99.90
27848;DHT22;15212;48.830;8.730;2022-08-01T11:47:01;25.50;99.90
27848;DHT22;15212;48.830;8.730;2022-08-01T11:49:33;25.70;99.90
27848;DHT22;15212;48.830;8.730;2022-08-01T11:52:13;25.80;99.90
27848;DHT22;15212;48.830;8.730;2022-08-01T11:54:54;26.00;99.90
27848;DHT22;15212;48.830;8.730;2022-08-01T11:57:32;26.10;99.90
27848;DHT22;15212;48.830;8.730;2022-08-01T12:00:11;26.30;99.90
27848;DHT22;15212;48.830;8.730;2022-08-01T12:02:40;26.30;99.70
27848;DHT22;15212;48.830;8.730;2022-08-01T12:05:16;26.40;99.90
27848;DHT22;15212;48.830;8.730;2022-08-01T12:07:51;26.40;99.90
27848;DHT22;15212;48.830;8.730;2022-08-01T12:10:27;26.50;99.30
27848;DHT22;15212;48.830;8.730;2022-08-01T12:13:04;26.50;99.30
27848;DHT22;15212;48.830;8.730;2022-08-01T12:15:35;26.50;99.40
27848;DHT22;15212;48.830;8.730;2022-08-01T12:18:05;26.50;98.90
27848;DHT22;15212;48.830;8.730;2022-08-01T12:20:35;26.60;98.90
27848;DHT22;15212;48.830;8.730;2022-08-01T12:23:10;26.60;98.20
27848;DHT22;15212;48.830;8.730;2022-08-01T12:25:40;26.70;97.60
27848;DHT22;15212;48.830;8.730;2022-08-01T12:28:11;26.70;97.20
27848;DHT22;15212;48.830;8.730;2022-08-01T12:30:40;26.60;97.60
27848;DHT22;15212;48.830;8.730;2022-08-01T12:33:10;26.60;97.90
27848;DHT22;15212;48.830;8.730;2022-08-01T12:35:41;26.70;97.70
27848;DHT22;15212;48.830;8.730;2022-08-01T12:38:20;26.80;97.60
27848;DHT22;15212;48.830;8.730;2022-08-01T12:40:51;27.00;97.40
27848;DHT22;15212;48.830;8.730;2022-08-01T12:43:21;27.00;97.20
27848;DHT22;15212;48.830;8.730;2022-08-01T12:45:53;27.00;96.80
27848;DHT22;15212;48.830;8.730;2022-08-01T12:48:22;27.10;96.40
27848;DHT22;15212;48.830;8.730;2022-08-01T12:50:52;27.00;97.40
27848;DHT22;15212;48.830;8.730;2022-08-01T12:53:23;27.10;97.90
27848;DHT22;15212;48.830;8.730;2022-08-01T12:55:53;27.30;97.00
27848;DHT22;15212;48.830;8.730;2022-08-01T12:58:22;27.40;96.70
27848;DHT22;15212;48.830;8.730;2022-08-01T13:01:02;27.40;96.20
27848;DHT22;15212;48.830;8.730;2022-08-01T13:03:23;27.50;96.60
27848;DHT22;15212;48.830;8.730;2022-08-01T13:05:54;27.60;96.70
27848;DHT22;15212;48.830;8.730;2022-08-01T13:08:33;27.70;96.00
27848;DHT22;15212;48.830;8.730;2022-08-01T13:11:09;27.70;96.10
27848;DHT22;15212;48.830;8.730;2022-08-01T13:13:53;27.40;95.90
27848;DHT22;15212;48.830;8.730;2022-08-01T13:16:24;27.20;96.60
27848;DHT22;15212;48.830;8.730;2022-08-01T13:18:54;27.10;96.40
27848;DHT22;15212;48.830;8.730;2022-08-01T13:21:29;27.30;96.60
27848;DHT22;15212;48.830;8.730;2022-08-01T13:24:09;27.30;96.60
27848;DHT22;15212;48.830;8.730;2022-08-01T13:26:53;27.30;95.80
27848;DHT22;15212;48.830;8.730;2022-08-01T13:29:36;27.30;96.80
27848;DHT22;15212;48.830;8.730;2022-08-01T13:32:19;27.40;97.10
27848;DHT22;15212;48.830;8.730;2022-08-01T13:34:48;27.30;96.60
27848;DHT22;15212;48.830;8.730;2022-08-01T13:37:17;27.10;96.80
27848;DHT22;15212;48.830;8.730;2022-08-01T13:39:45;27.00;97.10
27848;DHT22;15212;48.830;8.730;2022-08-01T13:42:15;27.00;97.20
27848;DHT22;15212;48.830;8.730;2022-08-01T13:44:44;27.00;97.00
27848;DHT22;15212;48.830;8.730;2022-08-01T13:47:12;26.90;96.70
27848;DHT22;15212;48.830;8.730;2022-08-01T13:49:41;26.80;96.80
27848;DHT22;15212;48.830;8.730;2022-08-01T13:52:10;26.70;97.00
27848;DHT22;15212;48.830;8.730;2022-08-01T13:54:38;26.80;97.00
27848;DHT22;15212;48.830;8.730;2022-08-01T13:57:07;26.90;97.00
27848;DHT22;15212;48.830;8.730;2022-08-01T13:59:36;26.80;97.20
27848;DHT22;15212;48.830;8.730;2022-08-01T14:02:04;26.80;97.20
27848;DHT22;15212;48.830;8.730;2022-08-01T14:04:32;26.80;97.00
27848;DHT22;15212;48.830;8.730;2022-08-01T14:07:01;26.80;96.90
27848;DHT22;15212;48.830;8.730;2022-08-01T14:09:29;26.90;97.10
27848;DHT22;15212;48.830;8.730;2022-08-01T14:11:59;26.90;96.80
27848;DHT22;15212;48.830;8.730;2022-08-01T14:14:28;26.90;96.60
27848;DHT22;15212;48.830;8.730;2022-08-01T14:16:56;27.00;96.60
27848;DHT22;15212;48.830;8.730;2022-08-01T14:19:25;27.00;96.50
27848;DHT22;15212;48.830;8.730;2022-08-01T14:21:53;27.00;96.10
27848;DHT22;15212;48.830;8.730;2022-08-01T14:24:23;26.90;96.30
27848;DHT22;15212;48.830;8.730;2022-08-01T14:26:53;26.70;96.70
27848;DHT22;15212;48.830;8.730;2022-08-01T14:29:21;26.70;96.40
27848;DHT22;15212;48.830;8.730;2022-08-01T14:31:50;26.70;96.20
27848;DHT22;15212;48.830;8.730;2022-08-01T14:34:18;26.80;96.50
27848;DHT22;15212;48.830;8.730;2022-08-01T14:36:46;27.00;96.70
27848;DHT22;15212;48.830;8.730;2022-08-01T14:39:15;27.20;96.20
27848;DHT22;15212;48.830;8.730;2022-08-01T14:41:43;27.60;95.70
27848;DHT22;15212;48.830;8.730;2022-08-01T14:44:12;27.60;95.30
27848;DHT22;15212;48.830;8.730;2022-08-01T14:46:40;27.70;95.40
27848;DHT22;15212;48.830;8.730;2022-08-01T14:49:10;27.80;95.20
27848;DHT22;15212;48.830;8.730;2022-08-01T14:51:39;28.00;94.90
27848;DHT22;15212;48.830;8.730;2022-08-01T14:54:07;27.80;94.50
27848;DHT22;15212;48.830;8.730;2022-08-01T14:56:35;27.50;94.70
27848;DHT22;15212;48.830;8.730;2022-08-01T14:59:04;27.40;95.60
27848;DHT22;15212;48.830;8.730;2022-08-01T15:01:32;27.20;95.60
27848;DHT22;15212;48.830;8.730;2022-08-01T15:04:00;27.00;95.10
27848;DHT22;15212;48.830;8.730;2022-08-01T15:06:29;26.70;95.30
27848;DHT22;15212;48.830;8.730;2022-08-01T15:08:57;26.60;95.60
27848;DHT22;15212;48.830;8.730;2022-08-01T15:11:26;26.60;95.80
27848;DHT22;15212;48.830;8.730;2022-08-01T15:13:54;26.60;95.70
27848;DHT22;15212;48.830;8.730;2022-08-01T15:16:40;26.60;95.80
27848;DHT22;15212;48.830;8.730;2022-08-01T15:19:09;26.60;95.90
27848;DHT22;15212;48.830;8.730;2022-08-01T15:21:37;26.60;95.80
27848;DHT22;15212;48.830;8.730;2022-08-01T15:24:06;26.50;96.00
27848;DHT22;15212;48.830;8.730;2022-08-01T15:26:35;26.50;96.00
27848;DHT22;15212;48.830;8.730;2022-08-01T15:29:03;26.50;96.20
27848;DHT22;15212;48.830;8.730;2022-08-01T15:31:32;26.60;96.30
27848;DHT22;15212;48.830;8.730;2022-08-01T15:34:00;26.40;96.20
27848;DHT22;15212;48.830;8.730;2022-08-01T15:36:29;26.40;96.30
27848;DHT22;15212;48.830;8.730;2022-08-01T15:38:57;26.30;96.40
27848;DHT22;15212;48.830;8.730;2022-08-01T15:41:25;26.30;96.50
27848;DHT22;15212;48.830;8.730;2022-08-01T15:43:54;26.30;96.40
27848;DHT22;15212;48.830;8.730;2022-08-01T15:46:22;26.30;96.40
27848;DHT22;15212;48.830;8.730;2022-08-01T15:48:51;26.20;96.50
27848;DHT22;15212;48.830;8.730;2022-08-01T15:51:20;26.20;96.40
27848;DHT22;15212;48.830;8.730;2022-08-01T15:53:50;26.30;96.40
27848;DHT22;15212;48.830;8.730;2022-08-01T15:56:18;26.30;96.40
27848;DHT22;15212;48.830;8.730;2022-08-01T15:58:47;26.30;96.40
27848;DHT22;15212;48.830;8.730;2022-08-01T16:01:15;26.40;96.60
27848;DHT22;15212;48.830;8.730;2022-08-01T16:03:44;26.30;96.50
27848;DHT22;15212;48.830;8.730;2022-08-01T16:06:12;26.20;96.70
27848;DHT22;15212;48.830;8.730;2022-08-01T16:08:41;26.10;96.70
27848;DHT22;15212;48.830;8.730;2022-08-01T16:11:09;26.10;96.70
27848;DHT22;15212;48.830;8.730;2022-08-01T16:13:38;26.00;96.80
27848;DHT22;15212;48.830;8.730;2022-08-01T16:16:10;26.00;96.70
27848;DHT22;15212;48.830;8.730;2022-08-01T16:18:39;26.00;96.60